West Pointe A la Hache, Louisiana
Current Conditions -  °F | °C
As of 11:25 AM on Sunday 23 Nov 2014 (Local Time) from K1B7 Reporting Station
Light Rain Light Rain  
Wind Chill: 64°   Ceiling: 5500
Heat Index: 64°   Visibility: 5mi
Dew Point: 63°   Wind: 18mph
Humidity: 94%   Direction: 240°WSW
Pressure: 29.73"   Gusts: NA
Location:  29.4927°N, 89.8165°W
Report Text: K1B7 231725Z 24016KT 5SM -RA BR SCT036 SCT047 BKN055 18/17 A2973
Loading
Personal Weather Stations






























Interactive Weather Map New forecast layout! Learn more

10-Day Weather Forecast

Advertisements
Track Severe Weather on mobile